createdAt,value
2019-06-15T00:01:41.241Z,101240.53
2019-06-15T00:04:09.094Z,101235.35
2019-06-15T00:06:36.841Z,101226.54
2019-06-15T00:09:06.378Z,101218.70
2019-06-15T00:11:34.159Z,101213.63
2019-06-15T00:14:01.931Z,101208.90
2019-06-15T00:16:29.823Z,101206.04
2019-06-15T00:18:57.650Z,101203.73
2019-06-15T00:21:25.381Z,101208.07
2019-06-15T00:23:53.378Z,101199.41
2019-06-15T00:26:21.392Z,101201.57
2019-06-15T00:28:49.213Z,101196.16
2019-06-15T00:31:19.301Z,101192.66
2019-06-15T00:33:47.179Z,101198.21
2019-06-15T00:36:15.332Z,101199.75
2019-06-15T00:38:43.295Z,101198.17
2019-06-15T00:41:11.710Z,101194.94
2019-06-15T00:43:39.471Z,101189.98
2019-06-15T00:46:07.248Z,101194.80
2019-06-15T00:48:35.642Z,101184.91
2019-06-15T00:51:04.658Z,101175.28
2019-06-15T00:53:34.871Z,101166.73
2019-06-15T00:56:03.083Z,101164.40
2019-06-15T00:58:30.746Z,101165.83
2019-06-15T01:00:58.435Z,101169.02
2019-06-15T01:03:26.176Z,101166.48
2019-06-15T01:05:54.339Z,101155.64
2019-06-15T01:08:22.148Z,101152.84
2019-06-15T01:10:50.943Z,101155.66
2019-06-15T01:13:18.709Z,101152.20
2019-06-15T01:15:46.451Z,101137.56
2019-06-15T01:18:14.680Z,101144.11
2019-06-15T01:20:42.416Z,101146.50
2019-06-15T01:23:10.233Z,101152.86
2019-06-15T01:25:38.035Z,101165.08
2019-06-15T01:28:05.940Z,101162.09
2019-06-15T01:30:33.870Z,101166.06
2019-06-15T01:33:01.597Z,101164.66
2019-06-15T01:35:29.474Z,101170.21
2019-06-15T01:37:57.296Z,101165.30
2019-06-15T01:40:25.052Z,101161.84
2019-06-15T01:42:54.362Z,101166.06
2019-06-15T01:45:26.047Z,101159.33
2019-06-15T01:47:54.462Z,101150.88
2019-06-15T01:50:22.199Z,101135.49
2019-06-15T01:52:49.948Z,101138.39
2019-06-15T01:55:21.235Z,101141.73
2019-06-15T01:57:47.969Z,101140.73
2019-06-15T02:00:20.688Z,101131.27
2019-06-15T02:02:48.511Z,101133.41
2019-06-15T02:05:16.387Z,101127.42
2019-06-15T02:07:44.262Z,101124.64
2019-06-15T02:10:15.669Z,101131.15
2019-06-15T02:12:43.432Z,101128.73
2019-06-15T02:15:11.798Z,101138.27
2019-06-15T02:17:39.504Z,101127.20
2019-06-15T02:20:07.857Z,101123.73
2019-06-15T02:22:39.724Z,101123.60
2019-06-15T02:25:08.000Z,101125.44
2019-06-15T02:27:35.691Z,101130.48
2019-06-15T02:30:04.999Z,101125.02
2019-06-15T02:32:32.673Z,101130.35
2019-06-15T02:35:00.398Z,101127.03
2019-06-15T02:37:28.207Z,101128.84
2019-06-15T02:39:55.931Z,101128.98
2019-06-15T02:42:23.640Z,101131.49
2019-06-15T02:44:51.450Z,101136.95
2019-06-15T02:47:19.163Z,101128.87
2019-06-15T02:49:46.883Z,101133.77
2019-06-15T02:52:14.853Z,101134.95
2019-06-15T02:54:45.259Z,101144.03
2019-06-15T02:57:13.100Z,101153.39
2019-06-15T02:59:46.908Z,101144.72
2019-06-15T03:02:14.574Z,101154.31
2019-06-15T03:04:42.332Z,101158.42
2019-06-15T03:07:10.873Z,101169.13
2019-06-15T03:09:39.322Z,101168.14
2019-06-15T03:12:07.022Z,101166.19
2019-06-15T03:14:34.936Z,101159.46
2019-06-15T03:17:02.747Z,101168.28
2019-06-15T03:19:30.497Z,101159.14
2019-06-15T03:21:58.201Z,101161.82
2019-06-15T03:24:25.999Z,101157.36
2019-06-15T03:26:53.664Z,101168.52
2019-06-15T03:29:21.471Z,101175.56
2019-06-15T03:31:49.292Z,101181.41
2019-06-15T03:34:17.102Z,101182.98
2019-06-15T03:36:44.802Z,101180.13
2019-06-15T03:39:12.725Z,101190.18
2019-06-15T03:41:40.565Z,101190.67
2019-06-15T03:44:08.319Z,101186.14
2019-06-15T03:46:36.121Z,101191.31
2019-06-15T03:49:03.822Z,101195.71
2019-06-15T03:51:31.911Z,101186.89
2019-06-15T03:53:59.767Z,101182.41
2019-06-15T03:56:27.461Z,101187.31
2019-06-15T03:58:55.204Z,101189.80
2019-06-15T04:01:34.068Z,101191.46
2019-06-15T04:04:01.852Z,101206.67
2019-06-15T04:06:29.534Z,101188.14
2019-06-15T04:08:57.464Z,101191.92
2019-06-15T04:11:25.268Z,101194.80
2019-06-15T04:13:53.092Z,101194.98
2019-06-15T04:16:20.955Z,101188.80
2019-06-15T04:18:48.771Z,101191.23
2019-06-15T04:21:16.509Z,101191.08
2019-06-15T04:23:44.338Z,101191.23
2019-06-15T04:26:12.368Z,101187.33
2019-06-15T04:28:40.169Z,101191.12
2019-06-15T04:31:07.860Z,101193.82
2019-06-15T04:33:35.859Z,101196.67
2019-06-15T04:36:03.568Z,101189.80
2019-06-15T04:38:31.300Z,101189.24
2019-06-15T04:41:01.574Z,101193.06
2019-06-15T04:43:28.718Z,101189.86
2019-06-15T04:45:57.066Z,101193.78
2019-06-15T04:48:24.794Z,101192.24
2019-06-15T04:50:52.512Z,101189.42
2019-06-15T04:53:20.335Z,101192.83
2019-06-15T04:55:48.013Z,101199.87
2019-06-15T04:58:15.815Z,101198.28
2019-06-15T05:00:43.674Z,101197.08
2019-06-15T05:03:11.582Z,101198.88
2019-06-15T05:05:39.293Z,101197.58
2019-06-15T05:08:07.230Z,101192.68
2019-06-15T05:10:34.948Z,101197.56
2019-06-15T05:13:02.650Z,101205.75
2019-06-15T05:15:30.472Z,101211.65
2019-06-15T05:17:58.236Z,101200.53
2019-06-15T05:20:25.953Z,101204.38
2019-06-15T05:22:53.752Z,101196.14
2019-06-15T05:25:21.973Z,101194.11
2019-06-15T05:27:49.594Z,101200.70
2019-06-15T05:30:17.941Z,101200.44
2019-06-15T05:32:45.662Z,101194.53
2019-06-15T05:35:13.656Z,101205.98
2019-06-15T05:37:41.427Z,101204.95
2019-06-15T05:40:09.408Z,101206.27
2019-06-15T05:42:37.230Z,101206.86
2019-06-15T05:45:06.010Z,101213.69
2019-06-15T05:47:33.703Z,101225.39
2019-06-15T05:50:01.527Z,101229.84
2019-06-15T05:52:29.207Z,101238.56
2019-06-15T05:54:57.036Z,101243.55
2019-06-15T05:57:24.747Z,101234.14
2019-06-15T05:59:52.680Z,101232.98
2019-06-15T06:02:23.878Z,101228.16
2019-06-15T06:04:49.969Z,101226.16
2019-06-15T06:07:17.796Z,101218.59
2019-06-15T06:09:45.464Z,101222.44
2019-06-15T06:12:13.276Z,101212.95
2019-06-15T06:14:41.080Z,101204.72
2019-06-15T06:17:08.881Z,101194.27
2019-06-15T06:19:36.570Z,101188.22
2019-06-15T06:22:04.415Z,101167.98
2019-06-15T06:24:32.099Z,101144.63
2019-06-15T06:27:00.220Z,101147.32
2019-06-15T06:29:27.885Z,101153.87
2019-06-15T06:31:55.556Z,101158.08
2019-06-15T06:34:23.879Z,101153.61
2019-06-15T06:36:51.575Z,101137.91
2019-06-15T06:39:19.320Z,101132.23
2019-06-15T06:41:47.133Z,101135.17
2019-06-15T06:44:14.951Z,101140.23
2019-06-15T06:46:42.690Z,101142.39
2019-06-15T06:49:10.852Z,101144.39
2019-06-15T06:51:38.805Z,101163.52
2019-06-15T06:54:06.529Z,101168.36
2019-06-15T06:56:34.226Z,101180.64
2019-06-15T06:59:02.136Z,101189.55
2019-06-15T07:01:29.919Z,101200.98
2019-06-15T07:03:57.726Z,101198.47
2019-06-15T07:06:25.525Z,101204.88
2019-06-15T07:08:53.237Z,101214.75
2019-06-15T07:11:20.914Z,101222.84
2019-06-15T07:13:48.805Z,101221.47
2019-06-15T07:16:16.877Z,101222.39
2019-06-15T07:18:44.559Z,101221.30
2019-06-15T07:21:16.424Z,101222.26
2019-06-15T07:23:44.226Z,101223.72
2019-06-15T07:26:11.902Z,101239.16
2019-06-15T07:28:39.778Z,101245.80
2019-06-15T07:31:07.562Z,101260.83
2019-06-15T07:33:35.248Z,101268.83
2019-06-15T07:36:02.955Z,101276.88
2019-06-15T07:38:30.751Z,101286.77
2019-06-15T07:40:58.571Z,101284.69
2019-06-15T07:43:26.413Z,101291.44
2019-06-15T07:45:54.227Z,101294.81
2019-06-15T07:48:22.037Z,101287.05
2019-06-15T07:50:49.893Z,101294.34
2019-06-15T07:53:17.608Z,101298.55
2019-06-15T07:55:45.486Z,101307.21
2019-06-15T07:58:24.156Z,101314.89
2019-06-15T08:00:42.928Z,101316.09
2019-06-15T08:03:10.771Z,101324.11
2019-06-15T08:05:38.485Z,101328.80
2019-06-15T08:08:06.177Z,101327.84
2019-06-15T08:10:34.023Z,101333.98
2019-06-15T08:13:01.715Z,101337.64
2019-06-15T08:15:29.511Z,101330.55
2019-06-15T08:17:57.340Z,101327.30
2019-06-15T08:20:31.557Z,101325.47
2019-06-15T08:23:00.309Z,101332.36
2019-06-15T08:25:28.643Z,101338.11
2019-06-15T08:27:56.333Z,101330.96
2019-06-15T08:30:36.846Z,101330.44
2019-06-15T08:33:04.948Z,101350.45
2019-06-15T08:35:32.635Z,101360.21
2019-06-15T08:38:00.363Z,101347.22
2019-06-15T08:40:28.190Z,101341.72
2019-06-15T08:42:55.875Z,101341.28
2019-06-15T08:45:23.651Z,101355.84
2019-06-15T08:47:51.355Z,101368.15
2019-06-15T08:50:19.167Z,101371.03
2019-06-15T08:52:46.952Z,101374.09
2019-06-15T08:55:14.651Z,101371.44
2019-06-15T08:57:42.356Z,101369.48
2019-06-15T09:00:10.640Z,101374.92
2019-06-15T09:02:38.544Z,101362.20
2019-06-15T09:05:06.777Z,101362.73
2019-06-15T09:07:34.594Z,101371.48
2019-06-15T09:10:02.688Z,101383.19
2019-06-15T09:12:30.441Z,101395.66
2019-06-15T09:14:58.222Z,101405.41
2019-06-15T09:17:25.900Z,101413.66
2019-06-15T09:19:53.677Z,101411.97
2019-06-15T09:22:21.496Z,101400.23
2019-06-15T09:24:49.296Z,101408.91
2019-06-15T09:27:17.121Z,101411.45
2019-06-15T09:29:44.815Z,101409.98
2019-06-15T09:32:12.527Z,101411.20
2019-06-15T09:34:40.372Z,101418.06
2019-06-15T09:37:08.218Z,101421.98
2019-06-15T09:39:37.835Z,101432.98
2019-06-15T09:42:05.548Z,101437.03
2019-06-15T09:44:33.361Z,101442.13
2019-06-15T09:47:01.055Z,101444.73
2019-06-15T09:49:28.772Z,101446.13
2019-06-15T09:51:56.613Z,101447.88
2019-06-15T09:54:27.831Z,101443.61
2019-06-15T09:56:54.320Z,101443.80
2019-06-15T09:59:25.926Z,101453.38
2019-06-15T10:01:52.224Z,101451.98
2019-06-15T10:04:20.057Z,101447.80
2019-06-15T10:06:47.896Z,101442.41
2019-06-15T10:09:19.073Z,101456.45
2019-06-15T10:11:48.226Z,101464.31
2019-06-15T10:14:15.969Z,101467.50
2019-06-15T10:16:43.774Z,101463.87
2019-06-15T10:19:11.670Z,101466.15
2019-06-15T10:21:39.639Z,101467.03
2019-06-15T10:24:07.342Z,101466.48
2019-06-15T10:26:35.152Z,101478.11
2019-06-15T10:29:02.890Z,101477.73
2019-06-15T10:31:30.758Z,101484.42
2019-06-15T10:33:58.440Z,101482.46
2019-06-15T10:36:26.801Z,101487.34
2019-06-15T10:38:54.645Z,101488.23
2019-06-15T10:41:22.451Z,101493.57
2019-06-15T10:43:50.353Z,101502.16
2019-06-15T10:46:18.077Z,101506.08
2019-06-15T10:48:45.929Z,101510.12
2019-06-15T10:51:13.692Z,101512.83
2019-06-15T10:53:41.390Z,101516.36
2019-06-15T10:56:09.239Z,101510.12
2019-06-15T10:58:37.002Z,101512.91
2019-06-15T11:01:04.857Z,101511.20
2019-06-15T11:03:32.706Z,101517.83
2019-06-15T11:06:00.822Z,101527.86
2019-06-15T11:08:28.521Z,101533.91
2019-06-15T11:11:17.974Z,101540.55
2019-06-15T11:13:45.951Z,101541.82
2019-06-15T11:16:13.717Z,101543.89
2019-06-15T11:18:42.067Z,101547.09
2019-06-15T11:21:10.525Z,101548.30
2019-06-15T11:23:38.489Z,101556.53
2019-06-15T11:26:06.455Z,101561.43
2019-06-15T11:28:34.207Z,101570.27
2019-06-15T11:31:01.896Z,101571.59
2019-06-15T11:33:29.732Z,101576.08
2019-06-15T11:35:57.577Z,101569.20
2019-06-15T11:38:25.308Z,101573.42
2019-06-15T11:40:53.230Z,101573.66
2019-06-15T11:43:24.111Z,101577.77
2019-06-15T11:45:51.973Z,101572.08
2019-06-15T11:48:19.731Z,101570.65
2019-06-15T11:50:47.455Z,101572.62
2019-06-15T11:53:15.303Z,101578.50
2019-06-15T11:55:43.018Z,101588.22
2019-06-15T11:58:10.882Z,101589.55
2019-06-15T12:00:40.330Z,101585.20
2019-06-15T12:03:08.310Z,101588.70
2019-06-15T12:05:36.141Z,101592.39
2019-06-15T12:08:04.211Z,101595.30
2019-06-15T12:10:31.931Z,101601.91
2019-06-15T12:12:59.671Z,101601.30
2019-06-15T12:15:27.496Z,101602.97
2019-06-15T12:17:55.245Z,101603.70
2019-06-15T12:20:23.082Z,101603.28
2019-06-15T12:22:50.957Z,101595.50
2019-06-15T12:25:18.701Z,101599.50
2019-06-15T12:27:46.525Z,101600.63
2019-06-15T12:30:22.426Z,101603.23
2019-06-15T12:32:54.354Z,101599.66
2019-06-15T12:35:22.143Z,101584.47
2019-06-15T12:37:49.973Z,101595.84
2019-06-15T12:40:17.757Z,101598.55
2019-06-15T12:42:45.488Z,101607.06
2019-06-15T12:45:13.555Z,101602.69
2019-06-15T12:47:41.272Z,101606.78
2019-06-15T12:50:09.126Z,101608.33
2019-06-15T12:52:36.869Z,101612.59
2019-06-15T12:55:05.393Z,101614.28
2019-06-15T12:57:33.116Z,101612.88
2019-06-15T13:00:00.824Z,101613.40
2019-06-15T13:02:28.736Z,101622.58
2019-06-15T13:04:56.498Z,101617.98
2019-06-15T13:07:24.445Z,101630.48
2019-06-15T13:09:52.138Z,101628.16
2019-06-15T13:12:20.135Z,101624.76
2019-06-15T13:14:47.833Z,101625.39
2019-06-15T13:17:15.719Z,101628.64
2019-06-15T13:19:43.431Z,101631.42
2019-06-15T13:22:11.162Z,101625.48
2019-06-15T13:24:39.169Z,101625.73
2019-06-15T13:27:06.883Z,101628.77
2019-06-15T13:29:34.610Z,101631.09
2019-06-15T13:32:02.762Z,101623.94
2019-06-15T13:34:30.561Z,101641.59
2019-06-15T13:36:58.267Z,101631.69
2019-06-15T13:39:26.309Z,101637.36
2019-06-15T13:41:54.032Z,101632.91
2019-06-15T13:44:21.851Z,101641.64
2019-06-15T13:46:49.690Z,101639.43
2019-06-15T13:49:17.588Z,101641.40
2019-06-15T13:51:45.303Z,101643.84
2019-06-15T13:54:13.002Z,101651.34
2019-06-15T13:56:41.001Z,101653.45
2019-06-15T13:59:08.700Z,101646.61
2019-06-15T14:01:36.424Z,101648.27
2019-06-15T14:04:04.328Z,101654.56
2019-06-15T14:06:32.062Z,101654.75
2019-06-15T14:09:00.035Z,101647.66
2019-06-15T14:11:27.971Z,101643.52
2019-06-15T14:13:55.975Z,101645.65
2019-06-15T14:16:23.746Z,101645.22
2019-06-15T14:18:53.768Z,101646.68
2019-06-15T14:21:21.671Z,101635.33
2019-06-15T14:23:49.465Z,101633.64
2019-06-15T14:26:17.183Z,101634.39
2019-06-15T14:28:45.181Z,101622.34
2019-06-15T14:31:12.925Z,101618.44
2019-06-15T14:33:40.681Z,101622.80
2019-06-15T14:36:08.731Z,101625.63
2019-06-15T14:38:36.535Z,101620.17
2019-06-15T14:41:04.333Z,101621.28
2019-06-15T14:43:33.084Z,101626.06
2019-06-15T14:46:00.923Z,101622.69
2019-06-15T14:48:28.794Z,101621.39
2019-06-15T14:50:56.568Z,101621.30
2019-06-15T14:53:24.331Z,101628.69
2019-06-15T14:55:52.283Z,101630.80
2019-06-15T14:58:20.056Z,101632.16
2019-06-15T15:00:47.794Z,101640.78
2019-06-15T15:03:17.172Z,101641.28
2019-06-15T15:05:45.124Z,101640.55
2019-06-15T15:08:12.905Z,101642.47
2019-06-15T15:10:40.822Z,101647.22
2019-06-15T15:13:08.548Z,101649.92
2019-06-15T15:15:36.486Z,101643.24
2019-06-15T15:18:06.842Z,101644.32
2019-06-15T15:20:34.428Z,101640.52
2019-06-15T15:23:02.174Z,101638.03
2019-06-15T15:25:31.067Z,101633.87
2019-06-15T15:27:59.304Z,101634.59
2019-06-15T15:30:39.952Z,101625.55
2019-06-15T15:33:10.548Z,101619.45
2019-06-15T15:35:38.300Z,101620.55
2019-06-15T15:38:06.254Z,101620.72
2019-06-15T15:40:36.582Z,101615.11
2019-06-15T15:43:06.688Z,101628.23
2019-06-15T15:45:33.833Z,101623.22
2019-06-15T15:48:01.888Z,101631.13
2019-06-15T15:50:29.640Z,101626.91
2019-06-15T15:52:57.669Z,101622.02
2019-06-15T15:55:26.492Z,101613.42
2019-06-15T15:57:56.258Z,101613.28
2019-06-15T16:00:31.022Z,101605.20
2019-06-15T16:02:58.784Z,101608.64
2019-06-15T16:05:26.706Z,101612.25
2019-06-15T16:07:56.900Z,101616.16
2019-06-15T16:10:26.514Z,101615.78
2019-06-15T16:12:54.037Z,101613.07
2019-06-15T16:15:23.688Z,101607.69
2019-06-15T16:17:51.497Z,101615.00
2019-06-15T16:20:19.199Z,101623.84
2019-06-15T16:22:47.194Z,101615.75
2019-06-15T16:25:16.250Z,101622.77
2019-06-15T16:27:46.278Z,101631.70
2019-06-15T16:30:46.130Z,101634.22
2019-06-15T16:33:03.143Z,101628.20
2019-06-15T16:35:27.014Z,101635.34
2019-06-15T16:37:55.872Z,101646.16
2019-06-15T16:40:46.780Z,101649.41
2019-06-15T16:43:13.812Z,101652.05
2019-06-15T16:45:41.608Z,101652.84
2019-06-15T16:48:09.459Z,101648.42
2019-06-15T16:50:39.117Z,101647.08
2019-06-15T16:53:06.839Z,101651.92
2019-06-15T16:55:36.766Z,101643.13
2019-06-15T16:58:07.117Z,101645.70
2019-06-15T17:00:36.419Z,101655.13
2019-06-15T17:03:19.874Z,101647.30
2019-06-15T17:05:36.207Z,101646.09
2019-06-15T17:08:06.693Z,101650.73
2019-06-15T17:10:38.744Z,101645.68
2019-06-15T17:13:06.977Z,101652.24
2019-06-15T17:15:36.990Z,101655.39
2019-06-15T17:18:05.853Z,101659.63
2019-06-15T17:20:46.598Z,101656.85
2019-06-15T17:23:16.407Z,101661.39
2019-06-15T17:25:50.014Z,101665.26
2019-06-15T17:28:17.735Z,101653.76
2019-06-15T17:30:45.563Z,101648.81
2019-06-15T17:33:16.276Z,101642.00
2019-06-15T17:35:56.097Z,101646.50
2019-06-15T17:38:12.886Z,101645.94
2019-06-15T17:40:40.731Z,101647.18
2019-06-15T17:43:08.767Z,101648.34
2019-06-15T17:45:37.563Z,101648.78
2019-06-15T17:48:06.442Z,101639.70
2019-06-15T17:50:37.686Z,101651.19
2019-06-15T17:53:07.006Z,101639.75
2019-06-15T17:55:36.741Z,101640.23
2019-06-15T17:58:06.477Z,101646.87
2019-06-15T18:00:41.704Z,101644.34
2019-06-15T18:03:09.517Z,101641.75
2019-06-15T18:05:37.400Z,101642.17
2019-06-15T18:08:06.712Z,101642.72
2019-06-15T18:10:36.264Z,101645.28
2019-06-15T18:13:06.944Z,101635.00
2019-06-15T18:15:36.250Z,101637.53
2019-06-15T18:18:06.924Z,101629.33
2019-06-15T18:20:36.292Z,101633.48
2019-06-15T18:23:06.077Z,101633.13
2019-06-15T18:25:33.581Z,101633.63
2019-06-15T18:28:01.342Z,101627.20
2019-06-15T18:30:29.236Z,101626.59
2019-06-15T18:32:57.017Z,101634.48
2019-06-15T18:35:26.910Z,101634.83
2019-06-15T18:37:55.945Z,101637.17
2019-06-15T18:40:26.882Z,101635.61
2019-06-15T18:42:55.951Z,101636.33
2019-06-15T18:45:23.996Z,101643.84
2019-06-15T18:47:51.860Z,101650.09
2019-06-15T18:50:37.480Z,101646.27
2019-06-15T18:53:07.200Z,101649.16
2019-06-15T18:55:36.514Z,101636.34
2019-06-15T18:58:05.761Z,101639.18
2019-06-15T19:00:37.055Z,101638.98
2019-06-15T19:03:06.842Z,101635.25
2019-06-15T19:05:37.331Z,101640.52
2019-06-15T19:08:07.019Z,101647.09
2019-06-15T19:10:35.368Z,101642.16
2019-06-15T19:13:04.176Z,101650.20
2019-06-15T19:15:32.453Z,101650.08
2019-06-15T19:18:00.216Z,101650.56
2019-06-15T19:20:28.058Z,101657.88
2019-06-15T19:22:56.149Z,101662.23
2019-06-15T19:25:24.120Z,101657.31
2019-06-15T19:27:51.888Z,101662.28
2019-06-15T19:30:19.816Z,101667.13
2019-06-15T19:32:47.663Z,101658.13
2019-06-15T19:35:15.391Z,101658.13
2019-06-15T19:37:43.130Z,101659.46
2019-06-15T19:40:11.951Z,101659.42
2019-06-15T19:42:39.791Z,101657.37
2019-06-15T19:45:10.480Z,101656.73
2019-06-15T19:47:38.109Z,101664.69
2019-06-15T19:50:09.737Z,101674.80
2019-06-15T19:52:36.638Z,101676.77
2019-06-15T19:55:06.732Z,101684.47
2019-06-15T19:57:36.156Z,101680.56
2019-06-15T20:00:06.512Z,101682.67
2019-06-15T20:02:36.391Z,101687.70
2019-06-15T20:05:05.501Z,101694.36
2019-06-15T20:07:33.716Z,101692.48
2019-06-15T20:10:01.843Z,101691.61
2019-06-15T20:12:29.711Z,101694.77
2019-06-15T20:14:57.650Z,101699.16
2019-06-15T20:17:25.564Z,101694.77
2019-06-15T20:19:55.825Z,101698.44
2019-06-15T20:22:23.066Z,101694.16
2019-06-15T20:24:50.798Z,101699.03
2019-06-15T20:27:18.520Z,101699.06
2019-06-15T20:29:47.534Z,101709.83
2019-06-15T20:32:17.355Z,101716.25
2019-06-15T20:34:46.272Z,101715.55
2019-06-15T20:37:16.693Z,101713.89
2019-06-15T20:39:46.684Z,101714.07
2019-06-15T20:42:16.268Z,101724.88
2019-06-15T20:44:46.046Z,101717.17
2019-06-15T20:47:13.273Z,101709.73
2019-06-15T20:49:41.109Z,101709.20
2019-06-15T20:52:08.873Z,101711.20
2019-06-15T20:54:36.664Z,101708.59
2019-06-15T20:57:06.442Z,101712.78
2019-06-15T20:59:36.787Z,101719.67
2019-06-15T21:02:06.562Z,101723.96
2019-06-15T21:04:36.166Z,101720.76
2019-06-15T21:07:06.403Z,101725.59
2019-06-15T21:09:36.181Z,101727.52
2019-06-15T21:12:03.553Z,101731.38
2019-06-15T21:14:31.411Z,101741.89
2019-06-15T21:16:59.287Z,101744.33
2019-06-15T21:19:27.015Z,101742.91
2019-06-15T21:21:56.719Z,101748.37
2019-06-15T21:24:26.325Z,101749.59
2019-06-15T21:26:56.270Z,101749.31
2019-06-15T21:29:26.336Z,101747.19
2019-06-15T21:31:53.670Z,101760.88
2019-06-15T21:34:26.406Z,101749.69
2019-06-15T21:36:53.489Z,101748.44
2019-06-15T21:39:21.313Z,101744.70
2019-06-15T21:41:49.112Z,101748.73
2019-06-15T21:44:17.118Z,101744.93
2019-06-15T21:46:46.813Z,101752.09
2019-06-15T21:49:15.897Z,101747.88
2019-06-15T21:51:43.739Z,101752.08
2019-06-15T21:54:11.537Z,101754.90
2019-06-15T21:56:39.240Z,101743.41
2019-06-15T21:59:07.548Z,101745.77
2019-06-15T22:01:38.421Z,101748.93
2019-06-15T22:04:06.779Z,101747.42
2019-06-15T22:06:38.031Z,101748.26
2019-06-15T22:09:11.860Z,101749.97
2019-06-15T22:11:41.355Z,101750.23
2019-06-15T22:14:09.085Z,101750.02
2019-06-15T22:16:36.805Z,101750.50
2019-06-15T22:19:06.148Z,101760.86
2019-06-15T22:21:36.063Z,101760.34
2019-06-15T22:24:06.642Z,101764.88
2019-06-15T22:26:33.819Z,101767.13
2019-06-15T22:29:01.557Z,101777.68
2019-06-15T22:31:29.422Z,101775.14
2019-06-15T22:33:57.920Z,101784.69
2019-06-15T22:36:28.491Z,101783.88
2019-06-15T22:38:56.987Z,101783.53
2019-06-15T22:41:24.934Z,101792.97
2019-06-15T22:43:52.753Z,101781.88
2019-06-15T22:46:20.624Z,101787.77
2019-06-15T22:48:48.959Z,101785.36
2019-06-15T22:51:17.062Z,101793.23
2019-06-15T22:53:47.219Z,101795.40
2019-06-15T22:56:16.897Z,101791.31
2019-06-15T22:58:46.122Z,101790.83
2019-06-15T23:01:16.610Z,101791.69
2019-06-15T23:03:46.329Z,101790.48
2019-06-15T23:06:15.967Z,101791.80
2019-06-15T23:08:43.112Z,101806.66
2019-06-15T23:11:10.777Z,101793.02
2019-06-15T23:13:38.801Z,101795.45
2019-06-15T23:16:06.522Z,101793.64
2019-06-15T23:18:34.342Z,101798.21
2019-06-15T23:21:02.244Z,101800.70
2019-06-15T23:23:29.971Z,101798.28
2019-06-15T23:25:57.773Z,101800.59
2019-06-15T23:28:27.117Z,101799.77
2019-06-15T23:30:56.178Z,101802.53
2019-06-15T23:33:26.411Z,101805.34
2019-06-15T23:35:59.861Z,101805.73
2019-06-15T23:38:27.567Z,101808.38
2019-06-15T23:40:56.123Z,101806.11
2019-06-15T23:43:26.743Z,101806.48
2019-06-15T23:45:55.992Z,101811.30
2019-06-15T23:48:23.379Z,101806.78
2019-06-15T23:50:51.734Z,101805.30
2019-06-15T23:53:19.413Z,101801.26
2019-06-15T23:55:47.491Z,101807.17
2019-06-15T23:58:17.594Z,101805.78
